createdAt,value
2023-01-11T00:01:49.091Z,7.86
2023-01-11T00:06:52.169Z,7.87
2023-01-11T00:11:55.133Z,7.92
2023-01-11T00:16:58.567Z,7.94
2023-01-11T00:22:01.547Z,7.90
2023-01-11T00:27:03.271Z,7.88
2023-01-11T00:32:05.632Z,7.87
2023-01-11T00:37:10.039Z,7.98
2023-01-11T00:42:30.554Z,8.03
2023-01-11T00:47:50.920Z,8.03
2023-01-11T00:52:53.887Z,7.98
2023-01-11T00:57:55.550Z,7.98
2023-01-11T01:02:57.277Z,8.06
2023-01-11T01:08:00.238Z,8.08
2023-01-11T01:13:22.184Z,8.11
2023-01-11T01:18:23.876Z,8.09
2023-01-11T01:23:26.851Z,8.15
2023-01-11T01:28:28.579Z,8.19
2023-01-11T01:33:30.263Z,8.12
2023-01-11T01:38:33.229Z,8.29
2023-01-11T01:43:53.408Z,8.32
2023-01-11T01:48:57.119Z,8.29
2023-01-11T01:54:01.619Z,8.36
2023-01-11T01:59:07.676Z,8.35
2023-01-11T02:04:11.188Z,8.38
2023-01-11T02:09:19.064Z,8.48
2023-01-11T02:14:20.832Z,8.44
2023-01-11T02:19:39.231Z,8.46
2023-01-11T02:24:56.575Z,8.49
2023-01-11T02:30:04.155Z,8.52
2023-01-11T02:35:12.380Z,8.56
2023-01-11T02:40:16.846Z,8.57
2023-01-11T02:45:29.879Z,8.57
2023-01-11T02:50:33.474Z,8.61
2023-01-11T02:55:38.029Z,8.55
2023-01-11T03:00:41.204Z,8.53
2023-01-11T03:05:45.857Z,8.57
2023-01-11T03:10:53.971Z,8.52
2023-01-11T03:16:04.976Z,8.56
2023-01-11T03:21:14.336Z,8.60
2023-01-11T03:26:19.228Z,8.55
2023-01-11T03:31:22.977Z,8.57
2023-01-11T03:36:27.217Z,8.62
2023-01-11T03:41:29.877Z,8.68
2023-01-11T03:46:34.380Z,8.69
2023-01-11T03:51:38.670Z,8.68
2023-01-11T03:56:43.082Z,8.74
2023-01-11T04:01:46.135Z,8.80
2023-01-11T04:06:47.904Z,8.79
2023-01-11T04:11:49.630Z,8.88
2023-01-11T04:16:52.626Z,8.97
2023-01-11T04:21:54.310Z,8.95
2023-01-11T04:26:56.053Z,8.97
2023-01-11T04:31:59.141Z,9.00
2023-01-11T04:37:00.879Z,8.98
2023-01-11T04:42:21.056Z,9.03
2023-01-11T04:47:24.238Z,9.02
2023-01-11T04:52:25.897Z,9.14
2023-01-11T04:57:27.599Z,9.15
2023-01-11T05:02:30.601Z,9.20
2023-01-11T05:07:32.310Z,9.17
2023-01-11T05:12:34.124Z,9.17
2023-01-11T05:17:37.137Z,9.28
2023-01-11T05:22:38.901Z,9.29
2023-01-11T05:27:40.585Z,9.31
2023-01-11T05:32:43.645Z,9.33
2023-01-11T05:37:45.294Z,9.23
2023-01-11T05:42:47.185Z,9.35
2023-01-11T05:47:52.286Z,9.39
2023-01-11T05:52:53.926Z,9.53
2023-01-11T05:57:55.611Z,9.74
2023-01-11T06:03:00.325Z,9.76
2023-01-11T06:08:02.023Z,9.74
2023-01-11T06:13:23.028Z,9.72
2023-01-11T06:18:26.061Z,9.68
2023-01-11T06:23:28.674Z,9.57
2023-01-11T06:28:30.344Z,9.59
2023-01-11T06:33:33.446Z,9.65
2023-01-11T06:38:35.260Z,9.62
2023-01-11T06:43:37.826Z,9.56
2023-01-11T06:48:40.864Z,9.57
2023-01-11T06:53:42.740Z,9.60
2023-01-11T06:58:46.985Z,9.59
2023-01-11T07:03:50.791Z,9.56
2023-01-11T07:08:52.537Z,9.66
2023-01-11T07:13:54.259Z,9.53
2023-01-11T07:18:57.283Z,9.58
2023-01-11T07:23:58.970Z,9.57
2023-01-11T07:29:00.634Z,9.56
2023-01-11T07:34:03.692Z,9.57
2023-01-11T07:39:05.394Z,9.62
2023-01-11T07:44:07.066Z,9.58
2023-01-11T07:49:10.429Z,9.60
2023-01-11T07:54:12.068Z,9.67
2023-01-11T07:59:13.701Z,9.71
2023-01-11T08:04:16.798Z,9.72
2023-01-11T08:09:18.751Z,9.75
2023-01-11T08:14:39.208Z,9.81
2023-01-11T08:19:42.442Z,9.88
2023-01-11T08:24:44.089Z,9.93
2023-01-11T08:29:46.124Z,9.93
2023-01-11T08:34:49.371Z,10.00
2023-01-11T08:39:51.267Z,9.94
2023-01-11T08:44:52.918Z,10.03
2023-01-11T08:49:55.900Z,10.06
2023-01-11T08:54:57.556Z,10.14
2023-01-11T08:59:59.199Z,10.12
2023-01-11T09:05:02.194Z,10.13
2023-01-11T09:10:04.298Z,10.16
2023-01-11T09:15:06.989Z,10.14
2023-01-11T09:20:12.036Z,10.13
2023-01-11T09:25:13.873Z,10.21
2023-01-11T09:30:16.725Z,10.25
2023-01-11T09:35:19.901Z,10.29
2023-01-11T09:40:22.291Z,10.23
2023-01-11T09:45:24.451Z,10.27
2023-01-11T09:50:28.576Z,10.29
2023-01-11T09:55:32.963Z,10.27
2023-01-11T10:00:42.801Z,10.40
2023-01-11T10:05:59.472Z,10.47
2023-01-11T10:18:30.187Z,10.62
2023-01-11T10:22:00.492Z,10.70
2023-01-11T10:27:03.798Z,10.78
2023-01-11T10:32:22.826Z,10.70
2023-01-11T10:37:50.344Z,10.75
2023-01-11T10:42:54.702Z,10.72
2023-01-11T10:47:59.199Z,10.74
2023-01-11T10:53:07.056Z,10.76
2023-01-11T10:58:12.870Z,10.80
2023-01-11T11:03:38.406Z,10.86
2023-01-11T11:08:44.487Z,10.82
2023-01-11T11:13:49.280Z,10.86
2023-01-11T11:18:51.011Z,10.87
2023-01-11T11:23:56.902Z,10.86
2023-01-11T11:28:59.708Z,10.90
2023-01-11T11:34:06.788Z,10.96
2023-01-11T11:39:11.727Z,11.01
2023-01-11T11:44:16.269Z,11.04
2023-01-11T11:49:18.041Z,11.07
2023-01-11T11:54:23.157Z,11.01
2023-01-11T11:59:26.204Z,11.06
2023-01-11T12:04:33.543Z,11.07
2023-01-11T12:09:36.846Z,11.10
2023-01-11T12:14:38.515Z,10.91
2023-01-11T12:19:41.691Z,10.82
2023-01-11T12:24:44.849Z,10.93
2023-01-11T12:29:51.774Z,10.93
2023-01-11T12:35:00.863Z,10.93
2023-01-11T12:40:08.759Z,10.80
2023-01-11T12:45:16.646Z,10.82
2023-01-11T12:50:20.919Z,10.83
2023-01-11T12:55:42.021Z,10.71
2023-01-11T13:00:54.235Z,10.82
2023-01-11T13:06:00.427Z,10.95
2023-01-11T13:11:06.159Z,10.96
2023-01-11T13:16:10.297Z,10.95
2023-01-11T13:21:18.166Z,10.97
2023-01-11T13:26:23.104Z,10.96
2023-01-11T13:31:24.773Z,10.93
2023-01-11T13:36:28.233Z,10.80
2023-01-11T13:41:33.200Z,10.86
2023-01-11T13:46:41.543Z,10.87
2023-01-11T13:51:46.384Z,10.87
2023-01-11T13:56:52.006Z,10.92
2023-01-11T14:01:55.730Z,10.96
2023-01-11T14:07:04.935Z,11.01
2023-01-11T14:12:10.455Z,11.02
2023-01-11T14:17:27.169Z,11.05
2023-01-11T14:22:33.399Z,11.04
2023-01-11T14:27:44.436Z,10.97
2023-01-11T14:33:25.821Z,10.95
2023-01-11T14:39:05.586Z,10.92
2023-01-11T14:44:17.846Z,10.93
2023-01-11T14:49:26.741Z,10.89
2023-01-11T14:54:29.058Z,10.87
2023-01-11T14:59:37.296Z,10.88
2023-01-11T15:04:59.328Z,10.87
2023-01-11T15:10:04.454Z,10.80
2023-01-11T15:15:07.443Z,10.66
2023-01-11T15:20:11.243Z,10.65
2023-01-11T15:25:21.808Z,10.59
2023-01-11T15:30:37.059Z,10.56
2023-01-11T15:35:38.726Z,10.46
2023-01-11T15:40:42.228Z,10.43
2023-01-11T15:46:42.440Z,10.37
2023-01-11T15:52:02.957Z,10.31
2023-01-11T15:57:20.701Z,10.21
2023-01-11T16:03:04.326Z,10.17
2023-01-11T16:08:12.664Z,10.24
2023-01-11T16:13:27.834Z,10.22
2023-01-11T16:18:33.832Z,10.21
2023-01-11T16:23:35.498Z,10.20
2023-01-11T16:28:41.449Z,10.07
2023-01-11T16:33:43.101Z,10.03
2023-01-11T16:38:54.116Z,10.11
2023-01-11T16:43:59.612Z,10.15
2023-01-11T16:49:08.639Z,10.02
2023-01-11T16:54:11.687Z,9.90
2023-01-11T16:59:20.151Z,9.86
2023-01-11T17:04:26.243Z,9.75
2023-01-11T17:09:29.555Z,9.68
2023-01-11T17:14:42.411Z,9.67
2023-01-11T17:19:45.847Z,9.59
2023-01-11T17:24:49.944Z,9.49
2023-01-11T17:29:53.627Z,9.45
2023-01-11T17:34:55.303Z,9.44
2023-01-11T17:39:57.216Z,9.36
2023-01-11T17:45:13.211Z,9.36
2023-01-11T17:50:23.506Z,9.29
2023-01-11T17:55:25.281Z,9.22
2023-01-11T18:00:29.354Z,9.22
2023-01-11T18:05:31.008Z,9.12
2023-01-11T18:10:33.781Z,9.01
2023-01-11T18:15:36.884Z,8.91
2023-01-11T18:20:38.847Z,8.82
2023-01-11T18:25:40.488Z,8.72
2023-01-11T18:30:45.570Z,8.71
2023-01-11T18:35:48.679Z,8.62
2023-01-11T18:40:50.770Z,8.58
2023-01-11T18:45:53.869Z,8.56
2023-01-11T18:50:56.079Z,8.59
2023-01-11T18:55:57.764Z,8.56
2023-01-11T19:01:00.829Z,8.52
2023-01-11T19:06:02.696Z,8.54
2023-01-11T19:11:04.727Z,8.54
2023-01-11T19:16:08.258Z,8.57
2023-01-11T19:21:11.824Z,8.57
2023-01-11T19:26:13.655Z,8.53
2023-01-11T19:31:17.588Z,8.57
2023-01-11T19:36:19.463Z,8.59
2023-01-11T19:41:21.163Z,8.61
2023-01-11T19:46:31.477Z,8.60
2023-01-11T19:51:33.889Z,8.51
2023-01-11T19:56:35.724Z,8.53
2023-01-11T20:01:38.916Z,8.47
2023-01-11T20:06:41.418Z,8.45
2023-01-11T20:11:43.122Z,8.47
2023-01-11T20:16:46.222Z,8.45
2023-01-11T20:21:47.939Z,8.47
2023-01-11T20:26:49.661Z,8.47
2023-01-11T20:31:52.797Z,8.50
2023-01-11T20:36:54.524Z,8.45
2023-01-11T20:41:56.358Z,8.39
2023-01-11T20:46:59.426Z,8.48
2023-01-11T20:52:01.096Z,8.67
2023-01-11T20:57:05.585Z,8.61
2023-01-11T21:02:09.746Z,8.62
2023-01-11T21:07:11.498Z,8.54
2023-01-11T21:12:13.185Z,8.51
2023-01-11T21:17:16.352Z,8.44
2023-01-11T21:22:17.999Z,8.39
2023-01-11T21:27:19.827Z,8.52
2023-01-11T21:32:23.056Z,8.40
2023-01-11T21:37:24.990Z,8.35
2023-01-11T21:42:26.649Z,8.31
2023-01-11T21:47:29.664Z,8.29
2023-01-11T21:52:31.440Z,8.26
2023-01-11T21:57:33.335Z,8.22
2023-01-11T22:02:36.322Z,8.19
2023-01-11T22:07:40.183Z,8.18
2023-01-11T22:12:42.112Z,8.15
2023-01-11T22:17:45.168Z,8.21
2023-01-11T22:22:46.948Z,8.22
2023-01-11T22:27:48.621Z,8.34
2023-01-11T22:32:51.645Z,8.39
2023-01-11T22:37:53.303Z,8.38
2023-01-11T22:42:55.035Z,8.32
2023-01-11T22:47:59.676Z,8.29
2023-01-11T22:53:01.731Z,8.24
2023-01-11T22:58:03.427Z,8.17
2023-01-11T23:03:06.579Z,8.20
2023-01-11T23:08:08.351Z,8.26
2023-01-11T23:13:28.752Z,8.27
2023-01-11T23:18:31.849Z,8.38
2023-01-11T23:23:33.523Z,8.51
2023-01-11T23:28:35.152Z,8.59
2023-01-11T23:33:38.095Z,8.71
2023-01-11T23:38:39.793Z,8.79
2023-01-11T23:43:41.495Z,8.86
2023-01-11T23:48:44.568Z,8.84
2023-01-11T23:53:46.346Z,8.78
2023-01-11T23:58:48.077Z,8.78
